Time,TemperatureF,DewpointF,PressureIn,WindDirection,WindDirectionDegrees,WindSpeedMPH,WindSpeedGustMPH,Humidity,HourlyPrecipIn,Conditions,Clouds,dailyrainin,SoftwareType,DateUTC
2013-03-15 00:01:00,38.9,20.9,30.15,WNW,298,1.0,10.0,48,0.00,,,0.00,Wunderground v.1.15,2013-03-15 04:01:00,
2013-03-15 00:03:00,38.8,20.8,30.14,WNW,298,1.0,10.0,48,0.00,,,0.00,Wunderground v.1.15,2013-03-15 04:03:00,
2013-03-15 00:07:00,38.7,21.2,30.14,WNW,298,2.0,10.0,49,0.00,,,0.00,Wunderground v.1.15,2013-03-15 04:07:00,
2013-03-15 00:13:00,38.6,21.1,30.14,WNW,298,2.0,10.0,49,0.00,,,0.00,Wunderground v.1.15,2013-03-15 04:13:00,
2013-03-15 00:19:00,38.5,21.0,30.14,WNW,298,2.0,10.0,49,0.00,,,0.00,Wunderground v.1.15,2013-03-15 04:19:00,
2013-03-15 00:25:00,38.5,21.0,30.15,WNW,298,2.0,10.0,49,0.00,,,0.00,Wunderground v.1.15,2013-03-15 04:25:00,
2013-03-15 00:31:00,38.5,21.0,30.15,WNW,298,2.0,10.0,49,0.00,,,0.00,Wunderground v.1.15,2013-03-15 04:31:00,
2013-03-15 00:37:00,38.7,20.7,30.15,WNW,298,2.0,10.0,48,0.00,,,0.00,Wunderground v.1.15,2013-03-15 04:37:00,
2013-03-15 00:43:00,38.7,20.7,30.15,WNW,298,1.0,10.0,48,0.00,,,0.00,Wunderground v.1.15,2013-03-15 04:43:00,
2013-03-15 00:49:00,38.7,20.7,30.15,WNW,298,1.0,10.0,48,0.00,,,0.00,Wunderground v.1.15,2013-03-15 04:49:00,
2013-03-15 00:55:00,38.6,20.6,30.15,WNW,298,1.0,10.0,48,0.00,,,0.00,Wunderground v.1.15,2013-03-15 04:55:00,
2013-03-15 01:01:00,38.6,20.6,30.15,WNW,298,2.0,10.0,48,0.00,,,0.00,Wunderground v.1.15,2013-03-15 05:01:00,
2013-03-15 01:07:00,38.6,20.6,30.15,WNW,298,1.0,10.0,48,0.00,,,0.00,Wunderground v.1.15,2013-03-15 05:07:00,
2013-03-15 01:13:00,38.4,20.4,30.15,WNW,298,0.0,10.0,48,0.00,,,0.00,Wunderground v.1.15,2013-03-15 05:13:00,
2013-03-15 01:19:00,38.2,20.7,30.15,WNW,298,1.0,10.0,49,0.00,,,0.00,Wunderground v.1.15,2013-03-15 05:19:00,
2013-03-15 01:25:00,38.1,20.6,30.15,WNW,298,1.0,10.0,49,0.00,,,0.00,Wunderground v.1.15,2013-03-15 05:25:00,
2013-03-15 01:31:00,37.8,21.3,30.15,WNW,298,1.0,10.0,51,0.00,,,0.00,Wunderground v.1.15,2013-03-15 05:31:00,
2013-03-15 01:37:00,37.5,20.5,30.15,WNW,298,1.0,10.0,50,0.00,,,0.00,Wunderground v.1.15,2013-03-15 05:37:00,
2013-03-15 01:43:00,37.5,20.5,30.15,WNW,298,1.0,10.0,50,0.00,,,0.00,Wunderground v.1.15,2013-03-15 05:43:00,
2013-03-15 01:49:00,37.5,20.5,30.15,WNW,298,0.0,10.0,50,0.00,,,0.00,Wunderground v.1.15,2013-03-15 05:49:00,
2013-03-15 01:55:00,37.4,20.9,30.15,WNW,298,0.0,10.0,51,0.00,,,0.00,Wunderground v.1.15,2013-03-15 05:55:00,
2013-03-15 02:01:00,37.1,21.1,30.15,WNW,298,0.0,10.0,52,0.00,,,0.00,Wunderground v.1.15,2013-03-15 06:01:00,
2013-03-15 02:07:00,36.8,21.7,30.16,WNW,298,0.0,10.0,54,0.00,,,0.00,Wunderground v.1.15,2013-03-15 06:07:00,
2013-03-15 02:13:00,36.4,20.4,30.16,WNW,298,0.0,10.0,52,0.00,,,0.00,Wunderground v.1.15,2013-03-15 06:13:00,
2013-03-15 02:19:00,36.3,20.3,30.15,WNW,298,0.0,10.0,52,0.00,,,0.00,Wunderground v.1.15,2013-03-15 06:19:00,
2013-03-15 02:25:00,36.3,20.3,30.15,WNW,298,1.0,10.0,52,0.00,,,0.00,Wunderground v.1.15,2013-03-15 06:25:00,
2013-03-15 02:31:00,36.2,20.2,30.15,WNW,298,0.0,10.0,52,0.00,,,0.00,Wunderground v.1.15,2013-03-15 06:31:00,
2013-03-15 02:37:00,36.2,21.6,30.15,WNW,298,0.0,10.0,55,0.00,,,0.00,Wunderground v.1.15,2013-03-15 06:37:00,
2013-03-15 02:43:00,36.0,21.4,30.15,WNW,298,0.0,10.0,55,0.00,,,0.00,Wunderground v.1.15,2013-03-15 06:43:00,
2013-03-15 02:49:00,35.9,20.9,30.14,WNW,298,0.0,10.0,54,0.00,,,0.00,Wunderground v.1.15,2013-03-15 06:49:00,
2013-03-15 02:55:00,35.8,20.8,30.14,WNW,297,0.0,10.0,54,0.00,,,0.00,Wunderground v.1.15,2013-03-15 06:55:00,
2013-03-15 03:02:00,35.6,21.0,30.14,WNW,297,0.0,10.0,55,0.00,,,0.00,Wunderground v.1.15,2013-03-15 07:02:00,
2013-03-15 03:07:00,35.6,21.4,30.14,WNW,297,0.0,10.0,56,0.00,,,0.00,Wunderground v.1.15,2013-03-15 07:07:00,
2013-03-15 03:13:00,35.6,21.9,30.14,WNW,297,0.0,10.0,57,0.00,,,0.00,Wunderground v.1.15,2013-03-15 07:13:00,
2013-03-15 03:19:00,35.5,22.2,30.14,WNW,297,0.0,10.0,58,0.00,,,0.00,Wunderground v.1.15,2013-03-15 07:19:00,
2013-03-15 03:25:00,35.3,21.6,30.14,WNW,297,0.0,10.0,57,0.00,,,0.00,Wunderground v.1.15,2013-03-15 07:25:00,
2013-03-15 03:31:00,35.1,21.0,30.14,WNW,297,0.0,10.0,56,0.00,,,0.00,Wunderground v.1.15,2013-03-15 07:31:00,
2013-03-15 03:37:00,35.2,20.6,30.13,WNW,297,0.0,10.0,55,0.00,,,0.00,Wunderground v.1.15,2013-03-15 07:37:00,
2013-03-15 03:43:00,35.3,21.2,30.13,WNW,297,0.0,10.0,56,0.00,,,0.00,Wunderground v.1.15,2013-03-15 07:43:00,
2013-03-15 03:49:00,35.3,21.6,30.13,WNW,297,0.0,10.0,57,0.00,,,0.00,Wunderground v.1.15,2013-03-15 07:49:00,
2013-03-15 03:55:00,35.1,21.0,30.13,WNW,297,0.0,10.0,56,0.00,,,0.00,Wunderground v.1.15,2013-03-15 07:55:00,
2013-03-15 04:01:00,35.3,20.7,30.13,WNW,297,0.0,10.0,55,0.00,,,0.00,Wunderground v.1.15,2013-03-15 08:01:00,
2013-03-15 04:07:00,35.4,20.4,30.13,WNW,297,0.0,10.0,54,0.00,,,0.00,Wunderground v.1.15,2013-03-15 08:07:00,
2013-03-15 04:13:00,35.5,20.5,30.13,WNW,297,0.0,10.0,54,0.00,,,0.00,Wunderground v.1.15,2013-03-15 08:13:00,
2013-03-15 04:19:00,35.5,20.5,30.13,WNW,297,0.0,10.0,54,0.00,,,0.00,Wunderground v.1.15,2013-03-15 08:19:00,
2013-03-15 04:25:00,35.5,20.5,30.13,WNW,297,0.0,10.0,54,0.00,,,0.00,Wunderground v.1.15,2013-03-15 08:25:00,
2013-03-15 04:31:00,35.3,21.6,30.13,WNW,297,0.0,10.0,57,0.00,,,0.00,Wunderground v.1.15,2013-03-15 08:31:00,
2013-03-15 04:37:00,35.0,20.9,30.13,WNW,297,0.0,10.0,56,0.00,,,0.00,Wunderground v.1.15,2013-03-15 08:37:00,
2013-03-15 04:43:00,34.4,20.3,30.13,WNW,297,0.0,10.0,56,0.00,,,0.00,Wunderground v.1.15,2013-03-15 08:43:00,
2013-03-15 04:49:00,34.3,19.8,30.13,WNW,297,0.0,10.0,55,0.00,,,0.00,Wunderground v.1.15,2013-03-15 08:49:00,
2013-03-15 04:55:00,34.4,19.9,30.13,WNW,297,0.0,10.0,55,0.00,,,0.00,Wunderground v.1.15,2013-03-15 08:55:00,
2013-03-15 05:01:00,34.4,21.1,30.13,WNW,297,0.0,10.0,58,0.00,,,0.00,Wunderground v.1.15,2013-03-15 09:01:00,
2013-03-15 05:07:00,34.1,20.0,30.13,WNW,297,0.0,10.0,56,0.00,,,0.00,Wunderground v.1.15,2013-03-15 09:07:00,
2013-03-15 05:13:00,34.0,20.3,30.13,WNW,297,0.0,10.0,57,0.00,,,0.00,Wunderground v.1.15,2013-03-15 09:13:00,
2013-03-15 05:19:00,33.9,21.1,30.13,WNW,297,0.0,10.0,59,0.00,,,0.00,Wunderground v.1.15,2013-03-15 09:19:00,
2013-03-15 05:25:00,33.7,21.3,30.13,WNW,297,0.0,10.0,60,0.00,,,0.00,Wunderground v.1.15,2013-03-15 09:25:00,
2013-03-15 05:31:00,33.3,20.9,30.13,WNW,297,0.0,10.0,60,0.00,,,0.00,Wunderground v.1.15,2013-03-15 09:31:00,
2013-03-15 05:37:00,33.0,20.2,30.13,WNW,297,0.0,10.0,59,0.00,,,0.00,Wunderground v.1.15,2013-03-15 09:37:00,
2013-03-15 05:43:00,33.1,19.9,30.14,WNW,297,0.0,10.0,58,0.00,,,0.00,Wunderground v.1.15,2013-03-15 09:43:00,
2013-03-15 05:49:00,33.0,20.6,30.14,WNW,297,0.0,10.0,60,0.00,,,0.00,Wunderground v.1.15,2013-03-15 09:49:00,
2013-03-15 05:55:00,32.7,20.3,30.14,WNW,297,0.0,10.0,60,0.00,,,0.00,Wunderground v.1.15,2013-03-15 09:55:00,
2013-03-15 06:01:00,32.7,20.7,30.14,WNW,297,0.0,10.0,61,0.00,,,0.00,Wunderground v.1.15,2013-03-15 10:01:00,
2013-03-15 06:07:00,32.9,20.5,30.14,WNW,297,0.0,10.0,60,0.00,,,0.00,Wunderground v.1.15,2013-03-15 10:07:00,
2013-03-15 06:13:00,33.0,20.2,30.14,WNW,297,0.0,10.0,59,0.00,,,0.00,Wunderground v.1.15,2013-03-15 10:13:00,
2013-03-15 06:19:00,33.0,20.2,30.14,WNW,297,0.0,10.0,59,0.00,,,0.00,Wunderground v.1.15,2013-03-15 10:19:00,
2013-03-15 06:25:00,32.9,20.5,30.13,WNW,297,0.0,10.0,60,0.00,,,0.00,Wunderground v.1.15,2013-03-15 10:25:00,
2013-03-15 06:31:00,32.7,20.3,30.13,WNW,297,0.0,10.0,60,0.00,,,0.00,Wunderground v.1.15,2013-03-15 10:31:00,
2013-03-15 06:37:00,32.6,21.0,30.14,WNW,297,0.0,10.0,62,0.00,,,0.00,Wunderground v.1.15,2013-03-15 10:37:00,
2013-03-15 06:43:00,32.3,20.7,30.14,WNW,297,0.0,10.0,62,0.00,,,0.00,Wunderground v.1.15,2013-03-15 10:43:00,
2013-03-15 06:49:00,32.0,21.2,30.13,WNW,297,0.0,10.0,64,0.00,,,0.00,Wunderground v.1.15,2013-03-15 10:49:00,
2013-03-15 06:55:00,31.7,20.9,30.14,WNW,297,0.0,10.0,64,0.00,,,0.00,Wunderground v.1.15,2013-03-15 10:55:00,
2013-03-15 07:01:00,31.4,21.0,30.14,WNW,297,0.0,10.0,65,0.00,,,0.00,Wunderground v.1.15,2013-03-15 11:01:00,
2013-03-15 07:07:00,31.0,21.0,30.14,WNW,297,0.0,10.0,66,0.00,,,0.00,Wunderground v.1.15,2013-03-15 11:07:00,
2013-03-15 07:13:00,30.8,21.1,30.14,WNW,297,0.0,10.0,67,0.00,,,0.00,Wunderground v.1.15,2013-03-15 11:13:00,
2013-03-15 07:19:00,31.0,20.6,30.14,WNW,297,0.0,10.0,65,0.00,,,0.00,Wunderground v.1.15,2013-03-15 11:19:00,
2013-03-15 07:25:00,31.5,20.7,30.13,WNW,297,0.0,10.0,64,0.00,,,0.00,Wunderground v.1.15,2013-03-15 11:25:00,
2013-03-15 07:31:00,31.9,21.1,30.13,WNW,297,0.0,10.0,64,0.00,,,0.00,Wunderground v.1.15,2013-03-15 11:31:00,
2013-03-15 07:37:00,32.2,20.2,30.14,WNW,297,0.0,10.0,61,0.00,,,0.00,Wunderground v.1.15,2013-03-15 11:37:00,
2013-03-15 07:43:00,32.6,20.2,30.14,WNW,297,0.0,10.0,60,0.00,,,0.00,Wunderground v.1.15,2013-03-15 11:43:00,
2013-03-15 07:49:00,33.0,20.6,30.14,WNW,297,0.0,10.0,60,0.00,,,0.00,Wunderground v.1.15,2013-03-15 11:49:00,
2013-03-15 07:55:00,33.2,20.4,30.14,WNW,297,0.0,10.0,59,0.00,,,0.00,Wunderground v.1.15,2013-03-15 11:55:00,
2013-03-15 08:01:00,33.4,20.6,30.14,WNW,297,1.0,10.0,59,0.00,,,0.00,Wunderground v.1.15,2013-03-15 12:01:00,
2013-03-15 08:07:00,33.9,20.7,30.13,WNW,287,1.0,10.0,58,0.00,,,0.00,Wunderground v.1.15,2013-03-15 12:07:00,
2013-03-15 08:13:00,34.4,20.7,30.13,WNW,287,1.0,10.0,57,0.00,,,0.00,Wunderground v.1.15,2013-03-15 12:13:00,
2013-03-15 08:19:00,34.8,20.7,30.13,WNW,287,1.0,10.0,56,0.00,,,0.00,Wunderground v.1.15,2013-03-15 12:19:00,
2013-03-15 08:25:00,35.0,20.9,30.13,WNW,287,2.0,10.0,56,0.00,,,0.00,Wunderground v.1.15,2013-03-15 12:25:00,
2013-03-15 08:31:00,35.1,21.0,30.14,WNW,287,2.0,10.0,56,0.00,,,0.00,Wunderground v.1.15,2013-03-15 12:31:00,
2013-03-15 08:37:00,35.4,21.2,30.14,WSW,257,2.0,10.0,56,0.00,,,0.00,Wunderground v.1.15,2013-03-15 12:37:00,
2013-03-15 08:43:00,35.9,21.7,30.14,West,270,2.0,10.0,56,0.00,,,0.00,Wunderground v.1.15,2013-03-15 12:43:00,
2013-03-15 08:49:00,37.2,22.1,30.13,West,267,2.0,2.0,54,0.00,,,0.00,Wunderground v.1.15,2013-03-15 12:49:00,
2013-03-15 08:55:00,37.8,22.2,30.13,West,267,1.0,10.0,53,0.00,,,0.00,Wunderground v.1.15,2013-03-15 12:55:00,
2013-03-15 09:02:00,38.1,22.5,30.13,West,265,1.0,10.0,53,0.00,,,0.00,Wunderground v.1.15,2013-03-15 13:02:00,
2013-03-15 09:07:00,38.7,23.0,30.13,West,265,1.0,10.0,53,0.00,,,0.00,Wunderground v.1.15,2013-03-15 13:07:00,
2013-03-15 09:13:00,39.5,22.4,30.13,West,261,2.0,10.0,50,0.00,,,0.00,Wunderground v.1.15,2013-03-15 13:13:00,
2013-03-15 09:19:00,39.5,22.4,30.13,West,262,3.0,10.0,50,0.00,,,0.00,Wunderground v.1.15,2013-03-15 13:19:00,
2013-03-15 09:25:00,40.4,23.7,30.12,West,265,3.0,10.0,51,0.00,,,0.00,Wunderground v.1.15,2013-03-15 13:25:00,
2013-03-15 09:31:00,41.1,22.9,30.11,WSW,250,2.0,10.0,48,0.00,,,0.00,Wunderground v.1.15,2013-03-15 13:31:00,
2013-03-15 09:37:00,41.4,22.7,30.11,WSW,247,4.0,10.0,47,0.00,,,0.00,Wunderground v.1.15,2013-03-15 13:37:00,
2013-03-15 09:43:00,41.6,23.8,30.11,WSW,257,4.0,10.0,49,0.00,,,0.00,Wunderground v.1.15,2013-03-15 13:43:00,
2013-03-15 09:49:00,42.2,23.4,30.12,WSW,252,3.0,10.0,47,0.00,,,0.00,Wunderground v.1.15,2013-03-15 13:49:00,
2013-03-15 09:55:00,43.0,24.6,30.12,WSW,258,3.0,10.0,48,0.00,,,0.00,Wunderground v.1.15,2013-03-15 13:55:00,
2013-03-15 10:01:00,43.7,24.2,30.11,WSW,242,3.0,10.0,46,0.00,,,0.00,Wunderground v.1.15,2013-03-15 14:01:00,
2013-03-15 10:07:00,44.6,24.0,30.11,WSW,249,3.0,10.0,44,0.00,,,0.00,Wunderground v.1.15,2013-03-15 14:07:00,
2013-03-15 10:13:00,44.1,23.0,30.11,West,273,4.0,10.0,43,0.00,,,0.00,Wunderground v.1.15,2013-03-15 14:13:00,
2013-03-15 10:19:00,44.1,23.0,30.11,West,265,5.0,5.0,43,0.00,,,0.00,Wunderground v.1.15,2013-03-15 14:19:00,
2013-03-15 10:25:00,44.3,23.2,30.11,West,261,5.0,10.0,43,0.00,,,0.00,Wunderground v.1.15,2013-03-15 14:25:00,
2013-03-15 10:31:00,44.8,23.6,30.11,WSW,257,4.0,10.0,43,0.00,,,0.00,Wunderground v.1.15,2013-03-15 14:31:00,
2013-03-15 10:37:00,44.6,24.0,30.10,West,264,4.0,10.0,44,0.00,,,0.00,Wunderground v.1.15,2013-03-15 14:37:00,
2013-03-15 10:43:00,44.7,23.5,30.10,West,269,4.0,10.0,43,0.00,,,0.00,Wunderground v.1.15,2013-03-15 14:43:00,
2013-03-15 10:49:00,45.4,24.2,30.09,West,281,3.0,10.0,43,0.00,,,0.00,Wunderground v.1.15,2013-03-15 14:49:00,
2013-03-15 10:55:00,45.6,24.4,30.09,West,280,3.0,10.0,43,0.00,,,0.00,Wunderground v.1.15,2013-03-15 14:55:00,
2013-03-15 11:01:00,45.6,23.8,30.09,West,276,4.0,10.0,42,0.00,,,0.00,Wunderground v.1.15,2013-03-15 15:01:00,
2013-03-15 11:07:00,45.3,23.5,30.09,WSW,248,6.0,10.0,42,0.00,,,0.00,Wunderground v.1.15,2013-03-15 15:07:00,
2013-03-15 11:13:00,45.5,23.7,30.09,West,259,6.0,10.0,42,0.00,,,0.00,Wunderground v.1.15,2013-03-15 15:13:00,
2013-03-15 11:19:00,46.4,25.6,30.08,West,266,4.0,10.0,44,0.00,,,0.00,Wunderground v.1.15,2013-03-15 15:19:00,
2013-03-15 11:25:00,46.5,26.3,30.08,WSW,248,4.0,10.0,45,0.00,,,0.00,Wunderground v.1.15,2013-03-15 15:25:00,
2013-03-15 11:31:00,47.2,25.8,30.08,WSW,248,5.0,10.0,43,0.00,,,0.00,Wunderground v.1.15,2013-03-15 15:31:00,
2013-03-15 11:37:00,47.2,25.3,30.08,West,263,5.0,10.0,42,0.00,,,0.00,Wunderground v.1.15,2013-03-15 15:37:00,
2013-03-15 11:43:00,47.6,26.2,30.08,WSW,256,5.0,10.0,43,0.00,,,0.00,Wunderground v.1.15,2013-03-15 15:43:00,
2013-03-15 11:49:00,47.8,26.4,30.08,West,262,4.0,4.0,43,0.00,,,0.00,Wunderground v.1.15,2013-03-15 15:49:00,
2013-03-15 11:55:00,48.2,27.3,30.07,WSW,250,4.0,10.0,44,0.00,,,0.00,Wunderground v.1.15,2013-03-15 15:55:00,
2013-03-15 12:01:00,48.6,26.5,30.07,WSW,243,6.0,10.0,42,0.00,,,0.00,Wunderground v.1.15,2013-03-15 16:01:00,
2013-03-15 12:07:00,48.4,27.5,30.06,WSW,240,7.0,10.0,44,0.00,,,0.00,Wunderground v.1.15,2013-03-15 16:07:00,
2013-03-15 12:13:00,49.0,28.0,30.06,West,275,6.0,10.0,44,0.00,,,0.00,Wunderground v.1.15,2013-03-15 16:13:00,
2013-03-15 12:19:00,49.2,27.6,30.06,West,263,5.0,10.0,43,0.00,,,0.00,Wunderground v.1.15,2013-03-15 16:19:00,
2013-03-15 12:25:00,50.0,28.9,30.05,WNW,284,5.0,10.0,44,0.00,,,0.00,Wunderground v.1.15,2013-03-15 16:25:00,
2013-03-15 12:31:00,49.8,28.2,30.05,WSW,255,6.0,10.0,43,0.00,,,0.00,Wunderground v.1.15,2013-03-15 16:31:00,
2013-03-15 12:37:00,50.1,28.4,30.04,West,261,7.0,10.0,43,0.00,,,0.00,Wunderground v.1.15,2013-03-15 16:37:00,
2013-03-15 12:43:00,50.8,29.1,30.04,WSW,254,6.0,10.0,43,0.00,,,0.00,Wunderground v.1.15,2013-03-15 16:43:00,
2013-03-15 12:49:00,50.8,29.1,30.04,WSW,253,5.0,5.0,43,0.00,,,0.00,Wunderground v.1.15,2013-03-15 16:49:00,
2013-03-15 12:55:00,51.7,29.3,30.03,SW,236,5.0,10.0,42,0.00,,,0.00,Wunderground v.1.15,2013-03-15 16:55:00,
2013-03-15 13:01:00,51.9,29.5,30.02,West,261,5.0,7.0,42,0.00,,,0.00,Wunderground v.1.15,2013-03-15 17:01:00,
2013-03-15 13:07:00,52.1,29.7,30.02,WSW,257,5.0,10.0,42,0.00,,,0.00,Wunderground v.1.15,2013-03-15 17:07:00,
2013-03-15 13:13:00,53.0,31.6,30.01,WSW,238,4.0,5.0,44,0.00,,,0.00,Wunderground v.1.15,2013-03-15 17:13:00,
2013-03-15 13:19:00,53.7,31.7,30.01,West,259,4.0,6.0,43,0.00,,,0.00,Wunderground v.1.15,2013-03-15 17:19:00,
2013-03-15 13:25:00,53.2,31.8,30.01,WSW,256,6.0,7.0,44,0.00,,,0.00,Wunderground v.1.15,2013-03-15 17:25:00,
2013-03-15 13:31:00,53.5,32.1,30.01,WSW,242,5.0,6.0,44,0.00,,,0.00,Wunderground v.1.15,2013-03-15 17:31:00,
2013-03-15 13:37:00,53.8,32.4,30.00,West,275,4.0,9.0,44,0.00,,,0.00,Wunderground v.1.15,2013-03-15 17:37:00,
2013-03-15 13:43:00,54.0,32.6,30.00,West,261,5.0,7.0,44,0.00,,,0.00,Wunderground v.1.15,2013-03-15 17:43:00,
2013-03-15 13:49:00,54.1,33.8,30.00,West,269,6.0,6.0,46,0.00,,,0.00,Wunderground v.1.15,2013-03-15 17:49:00,
2013-03-15 13:55:00,54.6,34.2,29.99,West,277,6.0,6.0,46,0.00,,,0.00,Wunderground v.1.15,2013-03-15 17:55:00,
2013-03-15 14:01:00,54.8,34.4,29.99,West,269,5.0,6.0,46,0.00,,,0.00,Wunderground v.1.15,2013-03-15 18:01:00,
2013-03-15 14:07:00,54.6,34.2,29.98,West,261,6.0,12.0,46,0.00,,,0.00,Wunderground v.1.15,2013-03-15 18:07:00,
2013-03-15 14:13:00,54.8,34.9,29.98,WSW,255,6.0,12.0,47,0.00,,,0.00,Wunderground v.1.15,2013-03-15 18:13:00,
2013-03-15 14:19:00,55.2,35.3,29.98,NW,308,5.0,12.0,47,0.00,,,0.00,Wunderground v.1.15,2013-03-15 18:19:00,
2013-03-15 14:25:00,55.7,35.8,29.97,West,267,5.0,12.0,47,0.00,,,0.00,Wunderground v.1.15,2013-03-15 18:25:00,
2013-03-15 14:31:00,55.7,35.2,29.97,WSW,254,6.0,12.0,46,0.00,,,0.00,Wunderground v.1.15,2013-03-15 18:31:00,
2013-03-15 14:37:00,55.5,35.6,29.96,West,275,7.0,12.0,47,0.00,,,0.00,Wunderground v.1.15,2013-03-15 18:37:00,
2013-03-15 14:43:00,55.6,35.7,29.96,West,259,6.0,12.0,47,0.00,,,0.00,Wunderground v.1.15,2013-03-15 18:43:00,
2013-03-15 14:49:00,56.0,36.0,29.95,West,262,6.0,6.0,47,0.00,,,0.00,Wunderground v.1.15,2013-03-15 18:49:00,
2013-03-15 14:55:00,56.0,35.5,29.95,WSW,253,6.0,12.0,46,0.00,,,0.00,Wunderground v.1.15,2013-03-15 18:55:00,
2013-03-15 15:01:00,56.0,36.0,29.94,West,263,6.0,12.0,47,0.00,,,0.00,Wunderground v.1.15,2013-03-15 19:01:00,
2013-03-15 15:07:00,56.1,35.6,29.94,West,274,6.0,12.0,46,0.00,,,0.00,Wunderground v.1.15,2013-03-15 19:07:00,
2013-03-15 15:13:00,55.7,35.8,29.94,West,268,6.0,12.0,47,0.00,,,0.00,Wunderground v.1.15,2013-03-15 19:13:00,
2013-03-15 15:19:00,55.5,35.6,29.93,WSW,246,5.0,12.0,47,0.00,,,0.00,Wunderground v.1.15,2013-03-15 19:19:00,
2013-03-15 15:25:00,55.3,35.4,29.93,West,271,6.0,12.0,47,0.00,,,0.00,Wunderground v.1.15,2013-03-15 19:25:00,
2013-03-15 15:31:00,55.1,35.2,29.92,WSW,252,5.0,12.0,47,0.00,,,0.00,Wunderground v.1.15,2013-03-15 19:31:00,
2013-03-15 15:37:00,55.2,35.3,29.92,West,260,5.0,12.0,47,0.00,,,0.00,Wunderground v.1.15,2013-03-15 19:37:00,
2013-03-15 15:43:00,55.5,35.6,29.92,West,261,4.0,12.0,47,0.00,,,0.00,Wunderground v.1.15,2013-03-15 19:43:00,
2013-03-15 15:49:00,55.7,35.8,29.91,WNW,301,3.0,3.0,47,0.00,,,0.00,Wunderground v.1.15,2013-03-15 19:49:00,
2013-03-15 15:55:00,56.4,35.9,29.91,West,264,3.0,12.0,46,0.00,,,0.00,Wunderground v.1.15,2013-03-15 19:55:00,
2013-03-15 16:01:00,57.0,35.9,29.91,West,260,5.0,12.0,45,0.00,,,0.00,Wunderground v.1.15,2013-03-15 20:01:00,
2013-03-15 16:07:00,57.0,35.9,29.91,West,269,6.0,12.0,45,0.00,,,0.00,Wunderground v.1.15,2013-03-15 20:07:00,
2013-03-15 16:13:00,57.2,35.5,29.91,West,269,6.0,12.0,44,0.00,,,0.00,Wunderground v.1.15,2013-03-15 20:13:00,
2013-03-15 16:19:00,57.4,36.2,29.90,WSW,247,5.0,12.0,45,0.00,,,0.00,Wunderground v.1.15,2013-03-15 20:19:00,
2013-03-15 16:25:00,57.6,35.8,29.90,WSW,239,6.0,12.0,44,0.00,,,0.00,Wunderground v.1.15,2013-03-15 20:25:00,
2013-03-15 16:31:00,57.6,35.8,29.90,WSW,244,6.0,12.0,44,0.00,,,0.00,Wunderground v.1.15,2013-03-15 20:31:00,
2013-03-15 16:37:00,57.4,35.6,29.89,West,271,6.0,12.0,44,0.00,,,0.00,Wunderground v.1.15,2013-03-15 20:37:00,
2013-03-15 16:43:00,57.5,36.3,29.89,WSW,250,4.0,12.0,45,0.00,,,0.00,Wunderground v.1.15,2013-03-15 20:43:00,
2013-03-15 16:49:00,57.8,36.6,29.89,West,278,3.0,12.0,45,0.00,,,0.00,Wunderground v.1.15,2013-03-15 20:49:00,
2013-03-15 16:55:00,58.1,36.3,29.89,WSW,243,4.0,12.0,44,0.00,,,0.00,Wunderground v.1.15,2013-03-15 20:55:00,
2013-03-15 17:02:00,58.1,36.3,29.88,WSW,237,6.0,12.0,44,0.00,,,0.00,Wunderground v.1.15,2013-03-15 21:02:00,
2013-03-15 17:07:00,58.3,37.0,29.88,WSW,241,4.0,12.0,45,0.00,,,0.00,Wunderground v.1.15,2013-03-15 21:07:00,
2013-03-15 17:19:00,58.5,37.2,29.88,WNW,294,4.0,4.0,45,0.00,,,0.00,Wunderground v.1.15,2013-03-15 21:19:00,
2013-03-15 17:25:00,58.6,37.3,29.88,West,261,4.0,12.0,45,0.00,,,0.00,Wunderground v.1.15,2013-03-15 21:25:00,
2013-03-15 17:31:00,58.6,37.3,29.87,WSW,258,4.0,12.0,45,0.00,,,0.00,Wunderground v.1.15,2013-03-15 21:31:00,
2013-03-15 17:37:00,58.5,37.2,29.87,WSW,244,5.0,12.0,45,0.00,,,0.00,Wunderground v.1.15,2013-03-15 21:37:00,
2013-03-15 17:43:00,58.5,37.8,29.87,WSW,255,4.0,12.0,46,0.00,,,0.00,Wunderground v.1.15,2013-03-15 21:43:00,
2013-03-15 17:49:00,58.5,37.8,29.87,WSW,252,4.0,4.0,46,0.00,,,0.00,Wunderground v.1.15,2013-03-15 21:49:00,
2013-03-15 17:55:00,58.5,37.8,29.87,West,261,3.0,12.0,46,0.00,,,0.00,Wunderground v.1.15,2013-03-15 21:55:00,
2013-03-15 18:01:00,58.5,37.8,29.87,WSW,250,4.0,4.0,46,0.00,,,0.00,Wunderground v.1.15,2013-03-15 22:01:00,
2013-03-15 18:07:00,58.5,37.8,29.87,WSW,242,4.0,12.0,46,0.00,,,0.00,Wunderground v.1.15,2013-03-15 22:07:00,
2013-03-15 18:13:00,58.5,37.8,29.87,West,259,4.0,12.0,46,0.00,,,0.00,Wunderground v.1.15,2013-03-15 22:13:00,
2013-03-15 18:19:00,58.4,37.7,29.87,WSW,244,4.0,4.0,46,0.00,,,0.00,Wunderground v.1.15,2013-03-15 22:19:00,
2013-03-15 18:25:00,58.5,38.3,29.86,WSW,253,5.0,12.0,47,0.00,,,0.00,Wunderground v.1.15,2013-03-15 22:25:00,
2013-03-15 18:31:00,58.5,37.8,29.86,WSW,246,4.0,12.0,46,0.00,,,0.00,Wunderground v.1.15,2013-03-15 22:31:00,
2013-03-15 18:37:00,58.5,37.8,29.86,WSW,258,4.0,12.0,46,0.00,,,0.00,Wunderground v.1.15,2013-03-15 22:37:00,
2013-03-15 18:43:00,58.4,37.7,29.86,WSW,248,4.0,12.0,46,0.00,,,0.00,Wunderground v.1.15,2013-03-15 22:43:00,
2013-03-15 18:50:00,58.3,38.1,29.86,WSW,249,4.0,12.0,47,0.00,,,0.00,Wunderground v.1.15,2013-03-15 22:50:00,
2013-03-15 18:55:00,58.1,37.4,29.86,WSW,246,4.0,12.0,46,0.00,,,0.00,Wunderground v.1.15,2013-03-15 22:55:00,
2013-03-15 19:02:00,58.0,37.3,29.86,West,260,4.0,5.0,46,0.00,,,0.00,Wunderground v.1.15,2013-03-15 23:02:00,
2013-03-15 19:07:00,57.8,37.7,29.86,WSW,252,4.0,12.0,47,0.00,,,0.00,Wunderground v.1.15,2013-03-15 23:07:00,
2013-03-15 19:13:00,57.6,37.5,29.86,SW,232,4.0,12.0,47,0.00,,,0.00,Wunderground v.1.15,2013-03-15 23:13:00,
2013-03-15 19:19:00,57.2,37.7,29.86,WSW,250,3.0,3.0,48,0.00,,,0.00,Wunderground v.1.15,2013-03-15 23:19:00,
2013-03-15 19:25:00,56.9,37.4,29.86,WSW,242,3.0,12.0,48,0.00,,,0.00,Wunderground v.1.15,2013-03-15 23:25:00,
2013-03-15 19:31:00,56.7,37.7,29.86,WSW,252,2.0,12.0,49,0.00,,,0.00,Wunderground v.1.15,2013-03-15 23:31:00,
2013-03-15 19:37:00,56.4,37.5,29.85,WSW,252,2.0,12.0,49,0.00,,,0.00,Wunderground v.1.15,2013-03-15 23:37:00,
2013-03-15 19:43:00,56.1,37.2,29.85,WSW,243,2.0,12.0,49,0.00,,,0.00,Wunderground v.1.15,2013-03-15 23:43:00,
2013-03-15 19:49:00,55.8,37.4,29.85,WSW,243,2.0,12.0,50,0.00,,,0.00,Wunderground v.1.15,2013-03-15 23:49:00,
2013-03-15 19:55:00,55.5,37.7,29.85,WSW,243,1.0,12.0,51,0.00,,,0.00,Wunderground v.1.15,2013-03-15 23:55:00,
2013-03-15 20:02:00,55.3,37.5,29.85,WSW,243,1.0,12.0,51,0.00,,,0.00,Wunderground v.1.15,2013-03-16 00:02:00,
2013-03-15 20:07:00,55.0,37.2,29.85,WSW,243,1.0,12.0,51,0.00,,,0.00,Wunderground v.1.15,2013-03-16 00:07:00,
2013-03-15 20:13:00,54.8,37.5,29.85,WSW,243,1.0,12.0,52,0.00,,,0.00,Wunderground v.1.15,2013-03-16 00:13:00,
2013-03-15 20:19:00,54.6,37.3,29.85,WSW,243,2.0,2.0,52,0.00,,,0.00,Wunderground v.1.15,2013-03-16 00:19:00,
2013-03-15 20:25:00,54.5,37.2,29.86,WSW,244,2.0,12.0,52,0.00,,,0.00,Wunderground v.1.15,2013-03-16 00:25:00,
2013-03-15 20:32:00,54.3,37.5,29.86,WSW,244,2.0,12.0,53,0.00,,,0.00,Wunderground v.1.15,2013-03-16 00:32:00,
2013-03-15 20:37:00,54.1,37.3,29.86,WSW,244,1.0,12.0,53,0.00,,,0.00,Wunderground v.1.15,2013-03-16 00:37:00,
2013-03-15 20:43:00,54.0,37.2,29.86,WSW,244,1.0,12.0,53,0.00,,,0.00,Wunderground v.1.15,2013-03-16 00:43:00,
2013-03-15 20:49:00,53.9,37.6,29.85,WSW,242,2.0,12.0,54,0.00,,,0.00,Wunderground v.1.15,2013-03-16 00:49:00,
2013-03-15 20:55:00,53.9,37.6,29.85,WSW,249,3.0,12.0,54,0.00,,,0.00,Wunderground v.1.15,2013-03-16 00:55:00,
2013-03-15 21:01:00,53.9,37.6,29.85,WSW,245,3.0,12.0,54,0.00,,,0.00,Wunderground v.1.15,2013-03-16 01:01:00,
2013-03-15 21:07:00,53.8,37.5,29.85,WSW,242,3.0,12.0,54,0.00,,,0.00,Wunderground v.1.15,2013-03-16 01:07:00,
2013-03-15 21:13:00,53.7,37.9,29.85,WSW,237,3.0,12.0,55,0.00,,,0.00,Wunderground v.1.15,2013-03-16 01:13:00,
2013-03-15 21:19:00,53.5,37.7,29.86,WSW,239,4.0,12.0,55,0.00,,,0.00,Wunderground v.1.15,2013-03-16 01:19:00,
2013-03-15 21:25:00,53.5,37.7,29.86,WSW,246,4.0,12.0,55,0.00,,,0.00,Wunderground v.1.15,2013-03-16 01:25:00,
2013-03-15 21:31:00,53.4,37.6,29.86,WSW,240,4.0,12.0,55,0.00,,,0.00,Wunderground v.1.15,2013-03-16 01:31:00,
2013-03-15 21:37:00,53.2,37.9,29.86,WSW,241,4.0,12.0,56,0.00,,,0.00,Wunderground v.1.15,2013-03-16 01:37:00,
2013-03-15 21:43:00,53.1,37.8,29.86,WSW,247,4.0,12.0,56,0.00,,,0.00,Wunderground v.1.15,2013-03-16 01:43:00,
2013-03-15 21:49:00,53.0,37.7,29.85,SW,235,4.0,4.0,56,0.00,,,0.00,Wunderground v.1.15,2013-03-16 01:49:00,
2013-03-15 21:55:00,52.9,37.6,29.85,WSW,252,4.0,12.0,56,0.00,,,0.00,Wunderground v.1.15,2013-03-16 01:55:00,
2013-03-15 22:01:00,52.9,37.6,29.85,WSW,244,4.0,12.0,56,0.00,,,0.00,Wunderground v.1.15,2013-03-16 02:01:00,
2013-03-15 22:07:00,52.8,37.5,29.86,WSW,252,4.0,12.0,56,0.00,,,0.00,Wunderground v.1.15,2013-03-16 02:07:00,
2013-03-15 22:13:00,52.8,37.5,29.86,WSW,245,4.0,12.0,56,0.00,,,0.00,Wunderground v.1.15,2013-03-16 02:13:00,
2013-03-15 22:19:00,52.7,37.4,29.86,WSW,252,4.0,12.0,56,0.00,,,0.00,Wunderground v.1.15,2013-03-16 02:19:00,
2013-03-15 22:25:00,52.8,37.5,29.86,WSW,253,4.0,12.0,56,0.00,,,0.00,Wunderground v.1.15,2013-03-16 02:25:00,
2013-03-15 22:31:00,52.8,37.5,29.86,WSW,248,4.0,12.0,56,0.00,,,0.00,Wunderground v.1.15,2013-03-16 02:31:00,
2013-03-15 22:37:00,52.8,38.0,29.86,WSW,239,4.0,12.0,57,0.00,,,0.00,Wunderground v.1.15,2013-03-16 02:37:00,
2013-03-15 22:43:00,52.7,37.4,29.86,WSW,245,4.0,12.0,56,0.00,,,0.00,Wunderground v.1.15,2013-03-16 02:43:00,
2013-03-15 22:49:00,52.8,37.5,29.86,WSW,253,4.0,12.0,56,0.00,,,0.00,Wunderground v.1.15,2013-03-16 02:49:00,
2013-03-15 22:55:00,52.9,37.6,29.86,WSW,242,5.0,12.0,56,0.00,,,0.00,Wunderground v.1.15,2013-03-16 02:55:00,
2013-03-15 23:01:00,53.0,37.7,29.86,West,261,5.0,12.0,56,0.00,,,0.00,Wunderground v.1.15,2013-03-16 03:01:00,
2013-03-15 23:07:00,52.8,37.5,29.86,WSW,238,4.0,12.0,56,0.00,,,0.00,Wunderground v.1.15,2013-03-16 03:07:00,
2013-03-15 23:13:00,52.8,37.5,29.86,WSW,249,4.0,12.0,56,0.00,,,0.00,Wunderground v.1.15,2013-03-16 03:13:00,
2013-03-15 23:19:00,52.8,37.5,29.86,WSW,246,4.0,12.0,56,0.00,,,0.00,Wunderground v.1.15,2013-03-16 03:19:00,
2013-03-15 23:25:00,52.7,37.4,29.85,WSW,252,4.0,12.0,56,0.00,,,0.00,Wunderground v.1.15,2013-03-16 03:25:00,
2013-03-15 23:31:00,52.6,37.8,29.85,WSW,258,4.0,12.0,57,0.00,,,0.00,Wunderground v.1.15,2013-03-16 03:31:00,
2013-03-15 23:37:00,52.6,37.8,29.85,WSW,247,4.0,12.0,57,0.00,,,0.00,Wunderground v.1.15,2013-03-16 03:37:00,
2013-03-15 23:43:00,52.7,37.9,29.85,WSW,245,4.0,12.0,57,0.00,,,0.00,Wunderground v.1.15,2013-03-16 03:43:00,
2013-03-15 23:49:00,52.5,37.7,29.85,WSW,256,4.0,12.0,57,0.00,,,0.00,Wunderground v.1.15,2013-03-16 03:49:00,
2013-03-15 23:55:00,52.5,37.7,29.85,WSW,257,4.0,12.0,57,0.00,,,0.00,Wunderground v.1.15,2013-03-16 03:55:00,